sensor_id;sensor_type;location;lat;lon;timestamp;temperature;humidity
18207;DHT22;9229;52.354;20.886;2023-06-19T00:03:34;15.10;99.90
18207;DHT22;9229;52.354;20.886;2023-06-19T00:08:38;15.00;99.90
18207;DHT22;9229;52.354;20.886;2023-06-19T00:13:42;14.90;99.90
18207;DHT22;9229;52.354;20.886;2023-06-19T00:18:45;14.90;99.90
18207;DHT22;9229;52.354;20.886;2023-06-19T00:23:47;14.80;99.90
18207;DHT22;9229;52.354;20.886;2023-06-19T00:28:49;14.70;99.90
18207;DHT22;9229;52.354;20.886;2023-06-19T00:33:53;14.60;99.90
18207;DHT22;9229;52.354;20.886;2023-06-19T00:38:55;14.60;99.90
18207;DHT22;9229;52.354;20.886;2023-06-19T00:43:57;14.50;99.90
18207;DHT22;9229;52.354;20.886;2023-06-19T00:49:01;14.40;99.90
18207;DHT22;9229;52.354;20.886;2023-06-19T00:54:03;14.40;99.90
18207;DHT22;9229;52.354;20.886;2023-06-19T00:59:08;14.40;99.90
18207;DHT22;9229;52.354;20.886;2023-06-19T01:04:15;14.30;99.90
18207;DHT22;9229;52.354;20.886;2023-06-19T01:09:20;14.30;99.90
18207;DHT22;9229;52.354;20.886;2023-06-19T01:14:26;14.20;99.90
18207;DHT22;9229;52.354;20.886;2023-06-19T01:19:30;14.10;99.90
18207;DHT22;9229;52.354;20.886;2023-06-19T01:24:41;14.10;99.90
18207;DHT22;9229;52.354;20.886;2023-06-19T01:29:46;14.10;99.90
18207;DHT22;9229;52.354;20.886;2023-06-19T01:34:52;14.00;99.90
18207;DHT22;9229;52.354;20.886;2023-06-19T01:39:59;13.90;99.90
18207;DHT22;9229;52.354;20.886;2023-06-19T01:45:01;13.90;99.90
18207;DHT22;9229;52.354;20.886;2023-06-19T01:50:04;13.80;99.90
18207;DHT22;9229;52.354;20.886;2023-06-19T01:55:09;13.80;99.90
18207;DHT22;9229;52.354;20.886;2023-06-19T02:00:12;13.70;99.90
18207;DHT22;9229;52.354;20.886;2023-06-19T02:05:17;13.70;99.90
18207;DHT22;9229;52.354;20.886;2023-06-19T02:10:21;13.60;99.90
18207;DHT22;9229;52.354;20.886;2023-06-19T02:15:26;13.60;99.90
18207;DHT22;9229;52.354;20.886;2023-06-19T02:20:28;13.60;99.90
18207;DHT22;9229;52.354;20.886;2023-06-19T02:25:33;13.50;99.90
18207;DHT22;9229;52.354;20.886;2023-06-19T02:30:36;13.40;99.90
18207;DHT22;9229;52.354;20.886;2023-06-19T02:35:39;13.30;99.90
18207;DHT22;9229;52.354;20.886;2023-06-19T02:40:43;13.30;99.90
18207;DHT22;9229;52.354;20.886;2023-06-19T02:45:46;13.20;99.90
18207;DHT22;9229;52.354;20.886;2023-06-19T02:50:51;13.30;99.90
18207;DHT22;9229;52.354;20.886;2023-06-19T02:55:55;13.30;99.90
18207;DHT22;9229;52.354;20.886;2023-06-19T03:00:57;13.30;99.90
18207;DHT22;9229;52.354;20.886;2023-06-19T03:05:59;13.30;99.90
18207;DHT22;9229;52.354;20.886;2023-06-19T03:11:07;13.40;99.90
18207;DHT22;9229;52.354;20.886;2023-06-19T03:16:09;13.40;99.90
18207;DHT22;9229;52.354;20.886;2023-06-19T03:21:12;13.30;99.90
18207;DHT22;9229;52.354;20.886;2023-06-19T03:26:18;13.50;99.90
18207;DHT22;9229;52.354;20.886;2023-06-19T03:31:23;13.50;99.90
18207;DHT22;9229;52.354;20.886;2023-06-19T03:36:29;13.70;99.90
18207;DHT22;9229;52.354;20.886;2023-06-19T03:41:41;13.80;99.90
18207;DHT22;9229;52.354;20.886;2023-06-19T03:46:58;13.80;99.90
18207;DHT22;9229;52.354;20.886;2023-06-19T03:52:00;14.10;99.90
18207;DHT22;9229;52.354;20.886;2023-06-19T03:57:04;14.30;99.90
18207;DHT22;9229;52.354;20.886;2023-06-19T04:02:07;14.20;99.90
18207;DHT22;9229;52.354;20.886;2023-06-19T04:07:10;14.40;99.90
18207;DHT22;9229;52.354;20.886;2023-06-19T04:12:20;14.60;99.90
18207;DHT22;9229;52.354;20.886;2023-06-19T04:17:22;14.70;99.90
18207;DHT22;9229;52.354;20.886;2023-06-19T04:22:25;14.90;99.90
18207;DHT22;9229;52.354;20.886;2023-06-19T04:27:30;15.20;99.90
18207;DHT22;9229;52.354;20.886;2023-06-19T04:32:35;15.30;99.90
18207;DHT22;9229;52.354;20.886;2023-06-19T04:37:37;15.60;99.90
18207;DHT22;9229;52.354;20.886;2023-06-19T04:42:46;16.00;99.90
18207;DHT22;9229;52.354;20.886;2023-06-19T04:47:48;16.50;99.90
18207;DHT22;9229;52.354;20.886;2023-06-19T04:52:52;16.90;99.90
18207;DHT22;9229;52.354;20.886;2023-06-19T04:57:56;17.20;99.90
18207;DHT22;9229;52.354;20.886;2023-06-19T05:02:58;17.40;99.90
18207;DHT22;9229;52.354;20.886;2023-06-19T05:08:01;17.50;99.90
18207;DHT22;9229;52.354;20.886;2023-06-19T05:13:04;17.80;99.90
18207;DHT22;9229;52.354;20.886;2023-06-19T05:18:06;18.40;99.90
18207;DHT22;9229;52.354;20.886;2023-06-19T05:23:18;19.00;99.90
18207;DHT22;9229;52.354;20.886;2023-06-19T05:28:22;19.90;99.90
18207;DHT22;9229;52.354;20.886;2023-06-19T05:33:25;20.70;99.90
18207;DHT22;9229;52.354;20.886;2023-06-19T05:38:28;21.30;99.90
18207;DHT22;9229;52.354;20.886;2023-06-19T05:43:35;21.80;99.90
18207;DHT22;9229;52.354;20.886;2023-06-19T05:48:38;22.50;99.90
18207;DHT22;9229;52.354;20.886;2023-06-19T05:53:39;22.90;99.90
18207;DHT22;9229;52.354;20.886;2023-06-19T05:58:54;23.50;99.90
18207;DHT22;9229;52.354;20.886;2023-06-19T06:03:56;24.20;99.90
18207;DHT22;9229;52.354;20.886;2023-06-19T06:09:00;24.60;99.90
18207;DHT22;9229;52.354;20.886;2023-06-19T06:14:03;24.60;99.90
18207;DHT22;9229;52.354;20.886;2023-06-19T06:19:08;24.90;99.90
18207;DHT22;9229;52.354;20.886;2023-06-19T06:24:12;25.60;99.60
18207;DHT22;9229;52.354;20.886;2023-06-19T06:29:16;26.40;96.30
18207;DHT22;9229;52.354;20.886;2023-06-19T06:34:18;27.10;93.70
18207;DHT22;9229;52.354;20.886;2023-06-19T06:39:20;27.60;91.80
18207;DHT22;9229;52.354;20.886;2023-06-19T06:44:27;28.30;89.20
18207;DHT22;9229;52.354;20.886;2023-06-19T06:49:29;28.70;82.90
18207;DHT22;9229;52.354;20.886;2023-06-19T06:54:32;28.90;80.30
18207;DHT22;9229;52.354;20.886;2023-06-19T06:59:35;29.20;78.20
18207;DHT22;9229;52.354;20.886;2023-06-19T07:04:37;29.40;75.90
18207;DHT22;9229;52.354;20.886;2023-06-19T07:09:39;30.10;73.10
18207;DHT22;9229;52.354;20.886;2023-06-19T07:14:43;30.40;70.00
18207;DHT22;9229;52.354;20.886;2023-06-19T07:19:45;30.80;68.60
18207;DHT22;9229;52.354;20.886;2023-06-19T07:24:47;31.20;66.40
18207;DHT22;9229;52.354;20.886;2023-06-19T07:29:51;31.40;64.90
18207;DHT22;9229;52.354;20.886;2023-06-19T07:34:57;32.20;62.60
18207;DHT22;9229;52.354;20.886;2023-06-19T07:40:02;33.30;59.80
18207;DHT22;9229;52.354;20.886;2023-06-19T07:45:09;34.10;56.80
18207;DHT22;9229;52.354;20.886;2023-06-19T07:50:30;34.70;55.50
18207;DHT22;9229;52.354;20.886;2023-06-19T07:55:33;35.00;54.00
18207;DHT22;9229;52.354;20.886;2023-06-19T08:00:39;35.30;51.90
18207;DHT22;9229;52.354;20.886;2023-06-19T08:05:41;34.20;52.50
18207;DHT22;9229;52.354;20.886;2023-06-19T08:10:47;33.90;52.60
18207;DHT22;9229;52.354;20.886;2023-06-19T08:16:06;34.10;51.90
18207;DHT22;9229;52.354;20.886;2023-06-19T08:21:16;34.20;51.30
18207;DHT22;9229;52.354;20.886;2023-06-19T08:26:21;34.50;49.50
18207;DHT22;9229;52.354;20.886;2023-06-19T08:31:25;35.00;49.40
18207;DHT22;9229;52.354;20.886;2023-06-19T08:36:34;35.40;49.00
18207;DHT22;9229;52.354;20.886;2023-06-19T08:41:37;36.30;47.50
18207;DHT22;9229;52.354;20.886;2023-06-19T08:46:41;37.00;46.30
18207;DHT22;9229;52.354;20.886;2023-06-19T08:51:43;37.20;45.70
18207;DHT22;9229;52.354;20.886;2023-06-19T08:56:47;37.80;44.80
18207;DHT22;9229;52.354;20.886;2023-06-19T09:01:52;37.50;43.90
18207;DHT22;9229;52.354;20.886;2023-06-19T09:07:13;37.60;43.90
18207;DHT22;9229;52.354;20.886;2023-06-19T09:12:39;37.00;42.80
18207;DHT22;9229;52.354;20.886;2023-06-19T09:17:42;36.50;42.40
18207;DHT22;9229;52.354;20.886;2023-06-19T09:22:55;36.50;42.80
18207;DHT22;9229;52.354;20.886;2023-06-19T09:27:58;36.30;42.70
18207;DHT22;9229;52.354;20.886;2023-06-19T09:33:07;36.70;42.80
18207;DHT22;9229;52.354;20.886;2023-06-19T09:38:11;37.80;41.90
18207;DHT22;9229;52.354;20.886;2023-06-19T09:43:19;38.80;40.60
18207;DHT22;9229;52.354;20.886;2023-06-19T09:48:46;38.80;40.00
18207;DHT22;9229;52.354;20.886;2023-06-19T09:53:56;38.50;40.10
18207;DHT22;9229;52.354;20.886;2023-06-19T09:58:59;38.50;39.80
18207;DHT22;9229;52.354;20.886;2023-06-19T10:04:05;38.30;39.70
18207;DHT22;9229;52.354;20.886;2023-06-19T10:09:08;35.50;43.30
18207;DHT22;9229;52.354;20.886;2023-06-19T10:14:12;32.60;47.80
18207;DHT22;9229;52.354;20.886;2023-06-19T10:19:17;32.10;49.30
18207;DHT22;9229;52.354;20.886;2023-06-19T10:24:20;33.90;48.00
18207;DHT22;9229;52.354;20.886;2023-06-19T10:29:22;33.70;45.80
18207;DHT22;9229;52.354;20.886;2023-06-19T10:34:36;32.30;47.70
18207;DHT22;9229;52.354;20.886;2023-06-19T10:39:41;30.90;49.70
18207;DHT22;9229;52.354;20.886;2023-06-19T10:44:43;31.00;50.30
18207;DHT22;9229;52.354;20.886;2023-06-19T10:49:53;31.20;49.80
18207;DHT22;9229;52.354;20.886;2023-06-19T10:54:56;30.80;50.20
18207;DHT22;9229;52.354;20.886;2023-06-19T10:59:59;30.30;50.20
18207;DHT22;9229;52.354;20.886;2023-06-19T11:05:22;29.50;51.00
18207;DHT22;9229;52.354;20.886;2023-06-19T11:10:26;29.10;51.80
18207;DHT22;9229;52.354;20.886;2023-06-19T11:15:36;30.60;50.90
18207;DHT22;9229;52.354;20.886;2023-06-19T11:20:47;33.60;46.90
18207;DHT22;9229;52.354;20.886;2023-06-19T11:25:51;33.80;44.50
18207;DHT22;9229;52.354;20.886;2023-06-19T11:30:58;32.70;45.60
18207;DHT22;9229;52.354;20.886;2023-06-19T11:36:09;31.30;48.10
18207;DHT22;9229;52.354;20.886;2023-06-19T11:41:24;30.40;50.50
18207;DHT22;9229;52.354;20.886;2023-06-19T11:46:30;31.90;47.70
18207;DHT22;9229;52.354;20.886;2023-06-19T11:51:34;31.70;47.20
18207;DHT22;9229;52.354;20.886;2023-06-19T11:56:37;30.90;49.20
18207;DHT22;9229;52.354;20.886;2023-06-19T12:01:43;30.10;50.50
18207;DHT22;9229;52.354;20.886;2023-06-19T12:06:48;29.70;52.10
18207;DHT22;9229;52.354;20.886;2023-06-19T12:11:50;29.40;52.30
18207;DHT22;9229;52.354;20.886;2023-06-19T12:16:52;31.10;50.70
18207;DHT22;9229;52.354;20.886;2023-06-19T12:21:56;32.80;47.80
18207;DHT22;9229;52.354;20.886;2023-06-19T12:27:03;32.40;47.90
18207;DHT22;9229;52.354;20.886;2023-06-19T12:32:06;32.40;49.40
18207;DHT22;9229;52.354;20.886;2023-06-19T12:37:10;34.10;47.10
18207;DHT22;9229;52.354;20.886;2023-06-19T12:42:13;35.90;44.90
18207;DHT22;9229;52.354;20.886;2023-06-19T12:47:15;36.60;42.70
18207;DHT22;9229;52.354;20.886;2023-06-19T12:52:20;35.70;42.90
18207;DHT22;9229;52.354;20.886;2023-06-19T12:57:22;34.40;44.80
18207;DHT22;9229;52.354;20.886;2023-06-19T13:02:28;33.00;45.70
18207;DHT22;9229;52.354;20.886;2023-06-19T13:07:35;31.90;47.40
18207;DHT22;9229;52.354;20.886;2023-06-19T13:12:37;31.30;48.70
18207;DHT22;9229;52.354;20.886;2023-06-19T13:17:46;30.70;48.50
18207;DHT22;9229;52.354;20.886;2023-06-19T13:22:50;30.50;49.00
18207;DHT22;9229;52.354;20.886;2023-06-19T13:27:53;30.40;50.90
18207;DHT22;9229;52.354;20.886;2023-06-19T13:32:55;30.50;51.00
18207;DHT22;9229;52.354;20.886;2023-06-19T13:38:04;30.30;51.70
18207;DHT22;9229;52.354;20.886;2023-06-19T13:43:07;29.80;51.90
18207;DHT22;9229;52.354;20.886;2023-06-19T13:48:17;29.20;53.20
18207;DHT22;9229;52.354;20.886;2023-06-19T13:53:26;30.10;52.50
18207;DHT22;9229;52.354;20.886;2023-06-19T13:58:29;32.50;49.60
18207;DHT22;9229;52.354;20.886;2023-06-19T14:03:31;33.50;47.00
18207;DHT22;9229;52.354;20.886;2023-06-19T14:08:35;33.10;46.30
18207;DHT22;9229;52.354;20.886;2023-06-19T14:13:37;32.10;47.90
18207;DHT22;9229;52.354;20.886;2023-06-19T14:18:47;31.10;49.50
18207;DHT22;9229;52.354;20.886;2023-06-19T14:24:07;30.70;50.40
18207;DHT22;9229;52.354;20.886;2023-06-19T14:29:12;30.40;50.70
18207;DHT22;9229;52.354;20.886;2023-06-19T14:34:19;30.10;50.90
18207;DHT22;9229;52.354;20.886;2023-06-19T14:39:25;29.80;50.40
18207;DHT22;9229;52.354;20.886;2023-06-19T14:44:30;29.50;50.70
18207;DHT22;9229;52.354;20.886;2023-06-19T14:49:32;29.50;51.60
18207;DHT22;9229;52.354;20.886;2023-06-19T14:54:39;29.40;50.70
18207;DHT22;9229;52.354;20.886;2023-06-19T14:59:43;29.50;50.40
18207;DHT22;9229;52.354;20.886;2023-06-19T15:04:45;29.30;50.70
18207;DHT22;9229;52.354;20.886;2023-06-19T15:09:49;29.20;51.30
18207;DHT22;9229;52.354;20.886;2023-06-19T15:14:52;29.20;51.60
18207;DHT22;9229;52.354;20.886;2023-06-19T15:19:54;29.00;52.50
18207;DHT22;9229;52.354;20.886;2023-06-19T15:24:57;28.70;52.80
18207;DHT22;9229;52.354;20.886;2023-06-19T15:29:59;28.50;54.00
18207;DHT22;9229;52.354;20.886;2023-06-19T15:35:06;28.40;55.00
18207;DHT22;9229;52.354;20.886;2023-06-19T15:40:12;28.30;55.40
18207;DHT22;9229;52.354;20.886;2023-06-19T15:45:14;28.00;56.40
18207;DHT22;9229;52.354;20.886;2023-06-19T15:50:27;27.90;57.10
18207;DHT22;9229;52.354;20.886;2023-06-19T15:55:30;27.80;57.70
18207;DHT22;9229;52.354;20.886;2023-06-19T16:00:34;28.00;56.30
18207;DHT22;9229;52.354;20.886;2023-06-19T16:05:36;28.20;55.50
18207;DHT22;9229;52.354;20.886;2023-06-19T16:10:45;28.40;55.00
18207;DHT22;9229;52.354;20.886;2023-06-19T16:15:48;28.50;53.20
18207;DHT22;9229;52.354;20.886;2023-06-19T16:20:50;28.60;53.10
18207;DHT22;9229;52.354;20.886;2023-06-19T16:25:55;28.50;53.10
18207;DHT22;9229;52.354;20.886;2023-06-19T16:31:11;28.40;54.90
18207;DHT22;9229;52.354;20.886;2023-06-19T16:36:17;27.90;54.70
18207;DHT22;9229;52.354;20.886;2023-06-19T16:41:21;27.60;55.90
18207;DHT22;9229;52.354;20.886;2023-06-19T16:46:23;27.20;56.60
18207;DHT22;9229;52.354;20.886;2023-06-19T16:51:25;27.00;57.70
18207;DHT22;9229;52.354;20.886;2023-06-19T16:56:28;26.80;58.30
18207;DHT22;9229;52.354;20.886;2023-06-19T17:01:30;26.70;60.20
18207;DHT22;9229;52.354;20.886;2023-06-19T17:06:32;26.70;61.70
18207;DHT22;9229;52.354;20.886;2023-06-19T17:11:49;26.60;61.60
18207;DHT22;9229;52.354;20.886;2023-06-19T17:17:15;26.50;61.90
18207;DHT22;9229;52.354;20.886;2023-06-19T17:22:42;26.40;61.90
18207;DHT22;9229;52.354;20.886;2023-06-19T17:27:48;26.50;62.50
18207;DHT22;9229;52.354;20.886;2023-06-19T17:32:50;26.40;62.70
18207;DHT22;9229;52.354;20.886;2023-06-19T17:37:56;26.40;63.20
18207;DHT22;9229;52.354;20.886;2023-06-19T17:43:04;26.30;63.90
18207;DHT22;9229;52.354;20.886;2023-06-19T17:48:08;26.20;63.90
18207;DHT22;9229;52.354;20.886;2023-06-19T17:53:10;26.30;62.80
18207;DHT22;9229;52.354;20.886;2023-06-19T17:58:20;26.40;62.40
18207;DHT22;9229;52.354;20.886;2023-06-19T18:03:30;26.30;63.80
18207;DHT22;9229;52.354;20.886;2023-06-19T18:08:56;26.00;62.30
18207;DHT22;9229;52.354;20.886;2023-06-19T18:14:21;26.00;61.30
18207;DHT22;9229;52.354;20.886;2023-06-19T18:19:25;25.80;62.10
18207;DHT22;9229;52.354;20.886;2023-06-19T18:24:31;25.60;63.80
18207;DHT22;9229;52.354;20.886;2023-06-19T18:29:36;25.30;66.70
18207;DHT22;9229;52.354;20.886;2023-06-19T18:34:38;25.00;71.00
18207;DHT22;9229;52.354;20.886;2023-06-19T18:39:52;24.60;70.60
18207;DHT22;9229;52.354;20.886;2023-06-19T18:45:16;24.40;72.20
18207;DHT22;9229;52.354;20.886;2023-06-19T18:50:18;24.10;74.30
18207;DHT22;9229;52.354;20.886;2023-06-19T18:55:20;23.80;75.00
18207;DHT22;9229;52.354;20.886;2023-06-19T19:00:24;23.60;76.60
18207;DHT22;9229;52.354;20.886;2023-06-19T19:05:26;23.30;77.80
18207;DHT22;9229;52.354;20.886;2023-06-19T19:10:28;23.10;79.20
18207;DHT22;9229;52.354;20.886;2023-06-19T19:15:32;22.70;80.40
18207;DHT22;9229;52.354;20.886;2023-06-19T19:20:34;22.60;83.20
18207;DHT22;9229;52.354;20.886;2023-06-19T19:25:36;22.40;84.70
18207;DHT22;9229;52.354;20.886;2023-06-19T19:30:41;22.20;86.20
18207;DHT22;9229;52.354;20.886;2023-06-19T19:35:47;22.00;88.10
18207;DHT22;9229;52.354;20.886;2023-06-19T19:40:49;21.80;89.50
18207;DHT22;9229;52.354;20.886;2023-06-19T19:46:03;21.60;90.40
18207;DHT22;9229;52.354;20.886;2023-06-19T19:51:07;21.50;91.40
18207;DHT22;9229;52.354;20.886;2023-06-19T19:56:11;21.20;92.40
18207;DHT22;9229;52.354;20.886;2023-06-19T20:01:18;21.00;93.60
18207;DHT22;9229;52.354;20.886;2023-06-19T20:09:19;20.90;95.30
18207;DHT22;9229;52.354;20.886;2023-06-19T20:13:16;20.60;97.70
18207;DHT22;9229;52.354;20.886;2023-06-19T20:18:20;20.40;99.90
18207;DHT22;9229;52.354;20.886;2023-06-19T20:23:23;20.30;99.90
18207;DHT22;9229;52.354;20.886;2023-06-19T20:28:25;20.10;99.90
18207;DHT22;9229;52.354;20.886;2023-06-19T20:33:32;20.00;99.90
18207;DHT22;9229;52.354;20.886;2023-06-19T20:38:35;19.80;99.90
18207;DHT22;9229;52.354;20.886;2023-06-19T20:43:37;19.70;99.90
18207;DHT22;9229;52.354;20.886;2023-06-19T20:48:46;19.60;99.90
18207;DHT22;9229;52.354;20.886;2023-06-19T20:53:48;19.50;99.90
18207;DHT22;9229;52.354;20.886;2023-06-19T20:59:01;19.40;99.90
18207;DHT22;9229;52.354;20.886;2023-06-19T21:04:06;19.20;99.90
18207;DHT22;9229;52.354;20.886;2023-06-19T21:09:08;19.10;99.90
18207;DHT22;9229;52.354;20.886;2023-06-19T21:14:11;18.90;99.90
18207;DHT22;9229;52.354;20.886;2023-06-19T21:19:16;18.80;99.90
18207;DHT22;9229;52.354;20.886;2023-06-19T21:24:22;18.70;99.90
18207;DHT22;9229;52.354;20.886;2023-06-19T21:29:24;18.40;99.90
18207;DHT22;9229;52.354;20.886;2023-06-19T21:34:27;18.50;99.90
18207;DHT22;9229;52.354;20.886;2023-06-19T21:39:29;18.40;99.90
18207;DHT22;9229;52.354;20.886;2023-06-19T21:44:31;18.30;99.90
18207;DHT22;9229;52.354;20.886;2023-06-19T21:49:35;18.20;99.90
18207;DHT22;9229;52.354;20.886;2023-06-19T21:54:39;18.00;99.90
18207;DHT22;9229;52.354;20.886;2023-06-19T21:59:41;18.00;99.90
18207;DHT22;9229;52.354;20.886;2023-06-19T22:04:44;17.90;99.90
18207;DHT22;9229;52.354;20.886;2023-06-19T22:09:47;17.80;99.90
18207;DHT22;9229;52.354;20.886;2023-06-19T22:14:51;17.70;99.90
18207;DHT22;9229;52.354;20.886;2023-06-19T22:19:55;17.70;99.90
18207;DHT22;9229;52.354;20.886;2023-06-19T22:24:58;17.60;99.90
18207;DHT22;9229;52.354;20.886;2023-06-19T22:30:00;17.50;99.90
18207;DHT22;9229;52.354;20.886;2023-06-19T22:35:05;17.50;99.90
18207;DHT22;9229;52.354;20.886;2023-06-19T22:40:08;17.40;99.90
18207;DHT22;9229;52.354;20.886;2023-06-19T22:45:10;17.30;99.90
18207;DHT22;9229;52.354;20.886;2023-06-19T22:50:14;17.20;99.90
18207;DHT22;9229;52.354;20.886;2023-06-19T22:55:16;17.20;99.90
18207;DHT22;9229;52.354;20.886;2023-06-19T23:00:19;17.10;99.90
18207;DHT22;9229;52.354;20.886;2023-06-19T23:05:22;17.00;99.90
18207;DHT22;9229;52.354;20.886;2023-06-19T23:10:24;16.90;99.90
18207;DHT22;9229;52.354;20.886;2023-06-19T23:15:26;16.80;99.90
18207;DHT22;9229;52.354;20.886;2023-06-19T23:20:30;16.60;99.90
18207;DHT22;9229;52.354;20.886;2023-06-19T23:25:32;16.60;99.90
18207;DHT22;9229;52.354;20.886;2023-06-19T23:30:34;16.50;99.90
18207;DHT22;9229;52.354;20.886;2023-06-19T23:35:38;16.60;99.90
18207;DHT22;9229;52.354;20.886;2023-06-19T23:40:40;16.50;99.90
18207;DHT22;9229;52.354;20.886;2023-06-19T23:45:42;16.40;99.90
18207;DHT22;9229;52.354;20.886;2023-06-19T23:50:45;16.30;99.90
18207;DHT22;9229;52.354;20.886;2023-06-19T23:55:48;16.20;99.90
